createdAt,value
2022-10-16T00:04:00.875Z,100.00
2022-10-16T00:08:50.795Z,100.00
2022-10-16T00:13:41.624Z,100.00
2022-10-16T00:18:31.533Z,100.00
2022-10-16T00:23:23.647Z,100.00
2022-10-16T00:28:13.078Z,100.00
2022-10-16T00:33:02.536Z,100.00
2022-10-16T00:37:51.953Z,100.00
2022-10-16T00:42:43.967Z,100.00
2022-10-16T00:47:35.461Z,100.00
2022-10-16T00:52:25.257Z,100.00
2022-10-16T01:02:07.403Z,100.00
2022-10-16T01:07:03.736Z,100.00
2022-10-16T01:12:00.611Z,100.00
2022-10-16T01:16:52.998Z,100.00
2022-10-16T01:21:46.736Z,100.00
2022-10-16T01:26:46.215Z,100.00
2022-10-16T01:31:44.214Z,100.00
2022-10-16T01:36:39.397Z,100.00
2022-10-16T01:41:31.722Z,100.00
2022-10-16T01:46:22.107Z,100.00
2022-10-16T01:51:15.874Z,100.00
2022-10-16T01:56:07.713Z,100.00
2022-10-16T02:00:58.441Z,100.00
2022-10-16T02:05:49.911Z,100.00
2022-10-16T02:10:42.056Z,100.00
2022-10-16T02:15:31.541Z,100.00
2022-10-16T02:20:22.811Z,100.00
2022-10-16T02:25:14.065Z,100.00
2022-10-16T02:30:11.291Z,100.00
2022-10-16T02:35:02.356Z,100.00
2022-10-16T02:39:51.847Z,100.00
2022-10-16T02:44:41.207Z,100.00
2022-10-16T02:49:33.271Z,100.00
2022-10-16T02:54:22.730Z,100.00
2022-10-16T02:59:12.375Z,100.00
2022-10-16T03:04:01.985Z,100.00
2022-10-16T03:08:53.991Z,100.00
2022-10-16T03:13:43.311Z,100.00
2022-10-16T03:18:32.887Z,100.00
2022-10-16T03:23:22.274Z,100.00
2022-10-16T03:28:14.314Z,100.00
2022-10-16T03:33:03.768Z,100.00
2022-10-16T03:37:53.480Z,100.00
2022-10-16T03:42:43.420Z,100.00
2022-10-16T03:47:35.483Z,100.00
2022-10-16T03:52:24.988Z,100.00
2022-10-16T03:57:14.965Z,100.00
2022-10-16T04:02:04.432Z,100.00
2022-10-16T04:06:56.539Z,100.00
2022-10-16T04:11:46.237Z,100.00
2022-10-16T04:16:35.675Z,100.00
2022-10-16T04:21:25.123Z,100.00
2022-10-16T04:26:17.209Z,100.00
2022-10-16T04:31:07.664Z,100.00
2022-10-16T04:36:00.358Z,100.00
2022-10-16T04:40:49.730Z,100.00
2022-10-16T04:45:41.640Z,100.00
2022-10-16T04:50:30.979Z,100.00
2022-10-16T04:55:29.112Z,100.00
2022-10-16T05:00:18.738Z,100.00
2022-10-16T05:05:11.629Z,100.00
2022-10-16T05:10:01.341Z,100.00
2022-10-16T05:14:50.926Z,100.00
2022-10-16T05:19:40.747Z,100.00
2022-10-16T05:24:33.245Z,100.00
2022-10-16T05:29:23.668Z,100.00
2022-10-16T05:34:13.617Z,100.00
2022-10-16T05:39:03.988Z,100.00
2022-10-16T05:43:56.893Z,100.00
2022-10-16T05:48:46.876Z,100.00
2022-10-16T05:53:38.046Z,100.00
2022-10-16T05:58:28.581Z,100.00
2022-10-16T06:03:20.924Z,100.00
2022-10-16T06:08:10.323Z,100.00
2022-10-16T06:13:00.118Z,100.00
2022-10-16T06:17:49.989Z,100.00
2022-10-16T06:22:43.949Z,100.00
2022-10-16T06:27:33.829Z,100.00
2022-10-16T06:32:23.951Z,100.00
2022-10-16T06:37:16.736Z,100.00
2022-10-16T06:42:10.380Z,100.00
2022-10-16T06:47:00.576Z,100.00
2022-10-16T06:51:54.743Z,100.00
2022-10-16T06:56:45.124Z,100.00
2022-10-16T07:01:37.969Z,100.00
2022-10-16T07:06:29.934Z,100.00
2022-10-16T07:11:21.539Z,100.00
2022-10-16T07:16:14.350Z,100.00
2022-10-16T07:21:12.271Z,100.00
2022-10-16T07:26:02.178Z,100.00
2022-10-16T07:30:52.324Z,100.00
2022-10-16T07:35:42.213Z,100.00
2022-10-16T07:40:34.790Z,100.00
2022-10-16T07:45:24.379Z,100.00
2022-10-16T07:50:14.128Z,100.00
2022-10-16T07:55:05.476Z,100.00
2022-10-16T07:59:58.099Z,100.00
2022-10-16T08:04:51.594Z,100.00
2022-10-16T08:09:41.626Z,100.00
2022-10-16T08:14:31.805Z,100.00
2022-10-16T08:19:24.151Z,100.00
2022-10-16T08:24:13.541Z,100.00
2022-10-16T08:29:04.500Z,100.00
2022-10-16T08:33:54.174Z,100.00
2022-10-16T08:38:46.810Z,100.00
2022-10-16T08:43:54.476Z,100.00
2022-10-16T08:48:49.692Z,100.00
2022-10-16T08:53:50.293Z,100.00
2022-10-16T08:58:40.029Z,100.00
2022-10-16T09:03:45.941Z,100.00
2022-10-16T09:08:50.466Z,100.00
2022-10-16T09:13:51.807Z,100.00
2022-10-16T09:18:50.584Z,100.00
2022-10-16T09:23:41.574Z,100.00
2022-10-16T09:28:35.194Z,100.00
2022-10-16T09:33:35.126Z,100.00
2022-10-16T09:38:31.556Z,100.00
2022-10-16T09:43:25.695Z,100.00
2022-10-16T09:48:16.201Z,100.00
2022-10-16T09:53:15.294Z,100.00
2022-10-16T09:58:05.486Z,100.00
2022-10-16T10:02:56.841Z,100.00
2022-10-16T10:07:47.861Z,100.00
2022-10-16T10:12:42.225Z,100.00
2022-10-16T10:17:33.275Z,100.00
2022-10-16T10:22:27.213Z,100.00
2022-10-16T10:27:21.962Z,100.00
2022-10-16T10:32:21.965Z,100.00
2022-10-16T10:37:29.706Z,100.00
2022-10-16T10:42:30.532Z,100.00
2022-10-16T10:47:35.074Z,100.00
2022-10-16T10:52:45.601Z,100.00
2022-10-16T10:57:40.337Z,100.00
2022-10-16T11:02:37.729Z,96.18
2022-10-16T11:07:30.175Z,96.70
2022-10-16T11:12:23.515Z,93.91
2022-10-16T11:17:16.436Z,95.76
2022-10-16T11:22:16.346Z,94.44
2022-10-16T11:27:08.755Z,93.14
2022-10-16T11:32:01.735Z,95.56
2022-10-16T11:36:55.998Z,91.09
2022-10-16T11:41:53.472Z,88.84
2022-10-16T11:46:58.982Z,93.19
2022-10-16T11:52:00.907Z,92.95
2022-10-16T11:56:57.794Z,95.51
2022-10-16T12:01:51.093Z,89.90
2022-10-16T12:06:47.933Z,95.12
2022-10-16T12:11:41.790Z,93.78
2022-10-16T12:16:34.959Z,89.54
2022-10-16T12:21:34.290Z,92.59
2022-10-16T12:26:31.105Z,91.59
2022-10-16T12:31:23.322Z,91.83
2022-10-16T12:36:20.983Z,89.03
2022-10-16T12:41:15.447Z,89.35
2022-10-16T12:46:07.151Z,93.00
2022-10-16T12:50:57.846Z,88.52
2022-10-16T12:55:56.395Z,89.20
2022-10-16T13:00:49.048Z,86.86
2022-10-16T13:05:48.544Z,89.47
2022-10-16T13:10:41.869Z,87.64
2022-10-16T13:15:41.786Z,87.73
2022-10-16T13:20:36.734Z,87.28
2022-10-16T13:25:32.547Z,91.71
2022-10-16T13:30:28.126Z,91.33
2022-10-16T13:35:31.208Z,86.76
2022-10-16T13:40:25.662Z,93.14
2022-10-16T13:45:21.854Z,92.38
2022-10-16T13:50:16.108Z,87.25
2022-10-16T13:55:14.800Z,85.79
2022-10-16T14:00:05.046Z,89.17
2022-10-16T14:04:55.912Z,96.43
2022-10-16T14:09:48.420Z,91.76
2022-10-16T14:14:57.747Z,94.67
2022-10-16T14:19:54.742Z,96.55
2022-10-16T14:24:49.033Z,96.25
2022-10-16T14:29:42.356Z,96.80
2022-10-16T14:34:34.672Z,95.79
2022-10-16T14:39:27.775Z,95.60
2022-10-16T14:44:20.002Z,95.03
2022-10-16T14:49:21.610Z,94.46
2022-10-16T14:54:14.047Z,96.39
2022-10-16T14:59:13.750Z,96.70
2022-10-16T15:04:03.578Z,96.04
2022-10-16T15:08:55.528Z,97.04
2022-10-16T15:13:45.012Z,98.00
2022-10-16T15:18:36.138Z,95.24
2022-10-16T15:28:20.798Z,96.49
2022-10-16T15:33:15.719Z,98.66
2022-10-16T15:38:05.337Z,99.73
2022-10-16T15:42:54.888Z,100.00
2022-10-16T15:47:47.008Z,100.00
2022-10-16T15:52:36.396Z,100.00
2022-10-16T15:57:26.665Z,100.00
2022-10-16T16:02:16.055Z,100.00
2022-10-16T16:07:08.330Z,100.00
2022-10-16T16:11:59.126Z,100.00
2022-10-16T16:16:48.584Z,100.00
2022-10-16T16:21:38.044Z,100.00
2022-10-16T16:26:33.543Z,100.00
2022-10-16T16:31:23.201Z,100.00
2022-10-16T16:36:15.699Z,100.00
2022-10-16T16:41:14.219Z,100.00
2022-10-16T16:46:06.168Z,100.00
2022-10-16T16:50:55.541Z,100.00
2022-10-16T16:55:44.956Z,100.00
2022-10-16T17:00:34.726Z,100.00
2022-10-16T17:05:27.103Z,100.00
2022-10-16T17:10:16.461Z,100.00
2022-10-16T17:15:07.183Z,100.00
2022-10-16T17:19:56.856Z,100.00
2022-10-16T17:24:52.222Z,100.00
2022-10-16T17:29:42.060Z,100.00
2022-10-16T17:34:32.291Z,100.00
2022-10-16T17:39:23.520Z,100.00
2022-10-16T17:44:20.256Z,100.00
2022-10-16T17:49:09.727Z,100.00
2022-10-16T17:54:00.892Z,100.00
2022-10-16T17:58:52.026Z,100.00
2022-10-16T18:03:44.198Z,100.00
2022-10-16T18:08:36.632Z,100.00
2022-10-16T18:13:26.377Z,100.00
2022-10-16T18:18:15.967Z,100.00
2022-10-16T18:23:08.119Z,100.00
2022-10-16T18:27:57.647Z,100.00
2022-10-16T18:32:47.096Z,100.00
2022-10-16T18:37:38.299Z,100.00
2022-10-16T18:42:30.355Z,100.00
2022-10-16T18:47:20.044Z,100.00
2022-10-16T18:52:09.727Z,100.00
2022-10-16T18:56:59.389Z,100.00
2022-10-16T19:01:52.756Z,100.00
2022-10-16T19:06:43.491Z,100.00
2022-10-16T19:11:36.803Z,100.00
2022-10-16T19:16:31.448Z,100.00
2022-10-16T19:21:24.517Z,100.00
2022-10-16T19:26:15.341Z,100.00
2022-10-16T19:31:05.386Z,100.00
2022-10-16T19:35:54.791Z,100.00
2022-10-16T19:40:47.008Z,100.00
2022-10-16T19:45:36.793Z,100.00
2022-10-16T19:50:26.710Z,100.00
2022-10-16T19:55:17.724Z,100.00
2022-10-16T20:00:11.281Z,100.00
2022-10-16T20:05:00.752Z,100.00
2022-10-16T20:09:50.188Z,100.00
2022-10-16T20:14:39.910Z,100.00
2022-10-16T20:19:32.055Z,100.00
2022-10-16T20:24:21.625Z,100.00
2022-10-16T20:29:11.180Z,100.00
2022-10-16T20:34:01.666Z,100.00
2022-10-16T20:38:54.896Z,100.00
2022-10-16T20:43:45.619Z,100.00
2022-10-16T20:48:35.057Z,100.00
2022-10-16T20:53:24.710Z,100.00
2022-10-16T20:58:17.681Z,100.00
2022-10-16T21:03:08.139Z,100.00
2022-10-16T21:07:58.000Z,100.00
2022-10-16T21:12:47.538Z,100.00
2022-10-16T21:17:39.555Z,100.00
2022-10-16T21:22:31.425Z,100.00
2022-10-16T21:27:20.789Z,100.00
2022-10-16T21:32:10.252Z,100.00
2022-10-16T21:37:02.466Z,100.00
2022-10-16T21:41:52.802Z,100.00
2022-10-16T21:46:44.036Z,100.00
2022-10-16T21:51:34.282Z,100.00
2022-10-16T21:56:26.328Z,100.00
2022-10-16T22:01:16.686Z,100.00
2022-10-16T22:06:06.928Z,100.00
2022-10-16T22:10:56.362Z,100.00
2022-10-16T22:15:56.040Z,100.00
2022-10-16T22:20:47.632Z,100.00
2022-10-16T22:25:37.052Z,100.00
2022-10-16T22:30:26.493Z,100.00
2022-10-16T22:35:18.538Z,100.00
2022-10-16T22:40:08.659Z,100.00
2022-10-16T22:44:58.001Z,100.00
2022-10-16T22:49:47.402Z,100.00
2022-10-16T22:54:40.097Z,100.00
2022-10-16T22:59:29.549Z,100.00
2022-10-16T23:04:18.905Z,100.00
2022-10-16T23:09:08.392Z,100.00
2022-10-16T23:14:00.368Z,100.00
2022-10-16T23:18:49.968Z,100.00
2022-10-16T23:23:40.012Z,100.00
2022-10-16T23:28:29.399Z,100.00
2022-10-16T23:33:21.439Z,100.00
2022-10-16T23:38:10.855Z,100.00
2022-10-16T23:43:00.269Z,100.00
2022-10-16T23:47:49.689Z,100.00
2022-10-16T23:52:41.732Z,100.00
2022-10-16T23:57:31.338Z,100.00
